createdAt,value
2023-04-07T00:01:04.330Z,101482.19
2023-04-07T00:03:31.893Z,101483.88
2023-04-07T00:05:59.482Z,101480.41
2023-04-07T00:08:27.226Z,101488.22
2023-04-07T00:10:54.657Z,101483.88
2023-04-07T00:13:22.088Z,101489.00
2023-04-07T00:15:49.510Z,101478.69
2023-04-07T00:18:16.920Z,101476.06
2023-04-07T00:20:44.348Z,101482.91
2023-04-07T00:23:11.854Z,101494.19
2023-04-07T00:25:39.311Z,101498.56
2023-04-07T00:28:06.774Z,101495.06
2023-04-07T00:30:34.168Z,101491.66
2023-04-07T00:33:01.644Z,101486.47
2023-04-07T00:35:29.144Z,101496.97
2023-04-07T00:37:57.000Z,101484.81
2023-04-07T00:40:24.473Z,101485.66
2023-04-07T00:42:51.882Z,101482.22
2023-04-07T00:45:19.288Z,101486.59
2023-04-07T00:47:46.884Z,101493.47
2023-04-07T00:50:14.442Z,101493.44
2023-04-07T00:52:42.429Z,101495.41
2023-04-07T00:55:10.067Z,101493.44
2023-04-07T00:57:37.707Z,101502.28
2023-04-07T01:00:06.630Z,101496.16
2023-04-07T01:02:57.279Z,101496.19
2023-04-07T01:05:29.317Z,101497.91
2023-04-07T01:07:59.807Z,101490.94
2023-04-07T01:10:29.449Z,101503.84
2023-04-07T01:13:06.843Z,101500.31
2023-04-07T01:15:35.462Z,101495.28
2023-04-07T01:18:14.335Z,101497.13
2023-04-07T01:20:44.667Z,101491.84
2023-04-07T01:23:18.124Z,101499.53
2023-04-07T01:25:48.290Z,101497.69
2023-04-07T01:28:35.923Z,101495.28
2023-04-07T01:31:05.817Z,101497.84
2023-04-07T01:33:34.963Z,101499.59
2023-04-07T01:36:04.318Z,101498.97
2023-04-07T01:38:32.363Z,101494.53
2023-04-07T01:41:00.356Z,101498.63
2023-04-07T01:43:28.720Z,101503.03
2023-04-07T01:45:57.467Z,101502.22
2023-04-07T01:48:25.869Z,101498.66
2023-04-07T01:50:53.635Z,101505.66
2023-04-07T01:53:21.216Z,101507.50
2023-04-07T01:55:48.990Z,101507.50
2023-04-07T01:58:16.424Z,101502.13
2023-04-07T02:00:43.878Z,101493.63
2023-04-07T02:03:20.816Z,101502.13
2023-04-07T02:05:49.352Z,101506.31
2023-04-07T02:08:18.459Z,101505.56
2023-04-07T02:10:48.238Z,101512.59
2023-04-07T02:13:17.186Z,101516.00
2023-04-07T02:15:45.302Z,101507.31
2023-04-07T02:18:14.660Z,101502.06
2023-04-07T02:20:43.589Z,101500.66
2023-04-07T02:23:11.375Z,101502.19
2023-04-07T02:25:39.266Z,101499.03
2023-04-07T02:28:07.020Z,101498.75
2023-04-07T02:30:34.687Z,101503.00
2023-04-07T02:33:02.252Z,101469.16
2023-04-07T02:35:29.736Z,101493.63
2023-04-07T02:37:57.113Z,101489.22
2023-04-07T02:40:24.498Z,101494.41
2023-04-07T02:42:51.953Z,101493.63
2023-04-07T02:45:19.414Z,101500.31
2023-04-07T02:47:46.820Z,101498.66
2023-04-07T02:50:14.328Z,101505.66
2023-04-07T02:52:41.776Z,101501.19
2023-04-07T02:55:09.567Z,101504.66
2023-04-07T02:57:36.954Z,101510.81
2023-04-07T03:00:04.473Z,101516.00
2023-04-07T03:02:32.046Z,101508.19
2023-04-07T03:04:59.472Z,101510.78
2023-04-07T03:07:26.903Z,101512.59
2023-04-07T03:09:54.252Z,101496.94
2023-04-07T03:12:21.696Z,101510.78
2023-04-07T03:14:49.126Z,101507.34
2023-04-07T03:17:16.582Z,101512.50
2023-04-07T03:19:44.055Z,101503.84
2023-04-07T03:22:11.423Z,101503.94
2023-04-07T03:24:39.561Z,101500.56
2023-04-07T03:27:06.969Z,101498.78
2023-04-07T03:29:34.447Z,101502.25
2023-04-07T03:32:01.900Z,101498.75
2023-04-07T03:34:29.273Z,101507.44
2023-04-07T03:36:56.706Z,101502.19
2023-04-07T03:39:24.143Z,101498.78
2023-04-07T03:41:51.711Z,101501.34
2023-04-07T03:44:19.094Z,101505.78
2023-04-07T03:46:48.258Z,101502.19
2023-04-07T03:49:15.763Z,101508.19
2023-04-07T03:51:43.253Z,101504.88
2023-04-07T03:54:10.659Z,101513.50
2023-04-07T03:56:38.370Z,101511.84
2023-04-07T03:59:05.797Z,101512.69
2023-04-07T04:01:33.460Z,101521.28
2023-04-07T04:04:01.001Z,101523.78
2023-04-07T04:06:28.688Z,101525.66
2023-04-07T04:08:56.073Z,101519.56
2023-04-07T04:11:23.759Z,101517.88
2023-04-07T04:13:51.686Z,101521.47
2023-04-07T04:16:19.337Z,101519.75
2023-04-07T04:18:46.863Z,101518.97
2023-04-07T04:21:14.286Z,101524.91
2023-04-07T04:23:41.740Z,101521.44
2023-04-07T04:26:09.160Z,101522.13
2023-04-07T04:28:36.963Z,101529.63
2023-04-07T04:31:05.490Z,101535.81
2023-04-07T04:33:32.949Z,101528.81
2023-04-07T04:36:00.310Z,101536.56
2023-04-07T04:38:27.791Z,101532.03
2023-04-07T04:40:55.272Z,101528.66
2023-04-07T04:43:22.689Z,101545.16
2023-04-07T04:45:50.318Z,101540.66
2023-04-07T04:48:17.900Z,101545.94
2023-04-07T04:50:45.290Z,101547.03
2023-04-07T04:53:12.708Z,101546.16
2023-04-07T04:55:40.888Z,101552.31
2023-04-07T04:58:08.262Z,101550.69
2023-04-07T05:00:35.764Z,101550.75
2023-04-07T05:03:04.321Z,101557.78
2023-04-07T05:05:31.883Z,101557.66
2023-04-07T05:07:59.268Z,101563.56
2023-04-07T05:10:26.643Z,101561.88
2023-04-07T05:12:54.099Z,101559.41
2023-04-07T05:15:21.530Z,101564.47
2023-04-07T05:17:50.652Z,101558.38
2023-04-07T05:20:18.261Z,101558.34
2023-04-07T05:22:45.708Z,101564.50
2023-04-07T05:25:13.161Z,101567.00
2023-04-07T05:27:40.989Z,101565.41
2023-04-07T05:30:08.741Z,101567.00
2023-04-07T05:32:36.181Z,101563.50
2023-04-07T05:35:03.561Z,101577.28
2023-04-07T05:37:31.100Z,101573.03
2023-04-07T05:39:58.500Z,101573.03
2023-04-07T05:42:26.786Z,101569.66
2023-04-07T05:44:54.337Z,101571.38
2023-04-07T05:47:21.855Z,101576.66
2023-04-07T05:49:49.322Z,101570.75
2023-04-07T05:52:16.745Z,101580.25
2023-04-07T05:54:44.269Z,101583.44
2023-04-07T05:57:11.748Z,101583.66
2023-04-07T05:59:39.210Z,101585.31
2023-04-07T06:02:06.685Z,101586.06
2023-04-07T06:04:35.409Z,101590.38
2023-04-07T06:07:03.206Z,101590.47
2023-04-07T06:09:30.674Z,101589.38
2023-04-07T06:11:58.255Z,101596.34
2023-04-07T06:14:27.099Z,101593.78
2023-04-07T06:16:54.635Z,101599.88
2023-04-07T06:19:22.068Z,101602.44
2023-04-07T06:21:49.556Z,101597.25
2023-04-07T06:24:16.997Z,101605.94
2023-04-07T06:26:46.674Z,101592.25
2023-04-07T06:29:14.119Z,101602.50
2023-04-07T06:31:41.591Z,101567.78
2023-04-07T06:34:09.033Z,101605.38
2023-04-07T06:36:36.603Z,101612.19
2023-04-07T06:39:04.134Z,101602.72
2023-04-07T06:41:31.775Z,101618.41
2023-04-07T06:43:59.155Z,101618.31
2023-04-07T06:46:26.792Z,101617.53
2023-04-07T06:48:54.255Z,101609.69
2023-04-07T06:51:21.604Z,101618.53
2023-04-07T06:53:49.639Z,101615.97
2023-04-07T06:56:17.353Z,101617.03
2023-04-07T06:58:44.720Z,101623.13
2023-04-07T07:01:12.179Z,101630.03
2023-04-07T07:03:39.760Z,101637.81
2023-04-07T07:06:07.417Z,101636.13
2023-04-07T07:08:35.261Z,101638.72
2023-04-07T07:11:02.727Z,101639.63
2023-04-07T07:13:30.181Z,101643.00
2023-04-07T07:15:57.576Z,101642.19
2023-04-07T07:18:25.017Z,101642.94
2023-04-07T07:20:52.502Z,101642.22
2023-04-07T07:23:19.899Z,101644.91
2023-04-07T07:25:47.386Z,101648.31
2023-04-07T07:28:14.902Z,101653.59
2023-04-07T07:30:42.342Z,101651.78
2023-04-07T07:33:10.027Z,101655.03
2023-04-07T07:35:38.427Z,101665.31
2023-04-07T07:38:05.861Z,101662.81
2023-04-07T07:40:33.433Z,101671.50
2023-04-07T07:43:03.709Z,101668.78
2023-04-07T07:45:31.191Z,101673.06
2023-04-07T07:47:58.760Z,101674.97
2023-04-07T07:50:26.278Z,101670.47
2023-04-07T07:52:53.793Z,101672.25
2023-04-07T07:55:21.499Z,101669.84
2023-04-07T07:57:49.109Z,101674.84
2023-04-07T08:00:16.979Z,101684.53
2023-04-07T08:02:44.565Z,101687.97
2023-04-07T08:05:12.853Z,101674.94
2023-04-07T08:07:40.291Z,101679.44
2023-04-07T08:10:07.958Z,101690.03
2023-04-07T08:12:35.754Z,101682.19
2023-04-07T08:15:08.118Z,101695.19
2023-04-07T08:17:35.820Z,101693.31
2023-04-07T08:20:03.713Z,101704.84
2023-04-07T08:22:31.403Z,101698.84
2023-04-07T08:24:58.812Z,101700.47
2023-04-07T08:27:26.162Z,101704.09
2023-04-07T08:30:03.660Z,101702.34
2023-04-07T08:32:37.618Z,101702.09
2023-04-07T08:35:05.424Z,101693.56
2023-04-07T08:37:33.862Z,101705.84
2023-04-07T08:40:02.033Z,101705.88
2023-04-07T08:42:30.755Z,101708.47
2023-04-07T08:45:00.903Z,101710.22
2023-04-07T08:47:29.168Z,101712.94
2023-04-07T08:49:58.517Z,101714.69
2023-04-07T08:52:29.072Z,101709.53
2023-04-07T08:54:58.204Z,101713.13
2023-04-07T08:57:25.679Z,101711.34
2023-04-07T08:59:53.200Z,101717.34
2023-04-07T09:02:21.334Z,101718.38
2023-04-07T09:04:49.219Z,101716.81
2023-04-07T09:07:16.594Z,101709.84
2023-04-07T09:09:44.023Z,101725.56
2023-04-07T09:12:11.500Z,101726.47
2023-04-07T09:14:38.930Z,101716.09
2023-04-07T09:17:06.337Z,101718.63
2023-04-07T09:19:34.127Z,101732.50
2023-04-07T09:22:01.608Z,101716.84
2023-04-07T09:24:31.535Z,101729.78
2023-04-07T09:27:13.939Z,101732.31
2023-04-07T09:29:44.180Z,101722.75
2023-04-07T09:32:12.361Z,101727.06
2023-04-07T09:34:41.209Z,101725.28
2023-04-07T09:37:09.546Z,101733.06
2023-04-07T09:39:57.227Z,101739.16
2023-04-07T09:42:25.987Z,101727.88
2023-04-07T09:44:53.723Z,101742.81
2023-04-07T09:47:27.016Z,101736.75
2023-04-07T09:49:55.116Z,101733.31
2023-04-07T09:52:48.870Z,101737.69
2023-04-07T09:55:16.882Z,101742.03
2023-04-07T09:57:45.352Z,101738.66
2023-04-07T10:00:12.980Z,101741.22
2023-04-07T10:02:40.598Z,101739.41
2023-04-07T10:05:09.177Z,101746.28
2023-04-07T10:07:36.612Z,101744.44
2023-04-07T10:10:04.824Z,101742.63
2023-04-07T10:12:35.336Z,101748.69
2023-04-07T10:15:03.214Z,101746.28
2023-04-07T10:17:31.646Z,101744.59
2023-04-07T10:19:59.792Z,101747.16
2023-04-07T10:22:28.766Z,101752.31
2023-04-07T10:25:01.733Z,101758.38
2023-04-07T10:27:32.321Z,101751.41
2023-04-07T10:30:00.038Z,101758.34
2023-04-07T10:32:27.579Z,101771.19
2023-04-07T10:34:55.077Z,101774.84
2023-04-07T10:37:23.656Z,101775.69
2023-04-07T10:39:52.001Z,101775.44
2023-04-07T10:42:38.760Z,101779.09
2023-04-07T10:45:06.679Z,101777.16
2023-04-07T10:47:34.261Z,101787.59
2023-04-07T10:50:13.746Z,101785.25
2023-04-07T10:52:41.320Z,101775.66
2023-04-07T10:55:27.617Z,101781.00
2023-04-07T10:58:13.841Z,101786.19
2023-04-07T11:00:41.273Z,101778.41
2023-04-07T11:03:13.208Z,101770.81
2023-04-07T11:05:41.586Z,101784.47
2023-04-07T11:08:09.268Z,101793.44
2023-04-07T11:10:36.878Z,101783.03
2023-04-07T11:13:08.145Z,101780.59
2023-04-07T11:15:40.260Z,101779.84
2023-04-07T11:18:08.444Z,101783.25
2023-04-07T11:20:46.781Z,101777.25
2023-04-07T11:23:14.714Z,101785.84
2023-04-07T11:25:46.495Z,101791.94
2023-04-07T11:28:14.381Z,101787.63
2023-04-07T11:30:49.892Z,101796.25
2023-04-07T11:33:18.635Z,101783.13
2023-04-07T11:35:52.851Z,101795.28
2023-04-07T11:38:21.149Z,101792.75
2023-04-07T11:40:48.784Z,101794.53
2023-04-07T11:43:17.259Z,101798.88
2023-04-07T11:45:44.919Z,101798.94
2023-04-07T11:48:28.182Z,101797.25
2023-04-07T11:50:55.570Z,101800.72
2023-04-07T11:53:27.060Z,101801.56
2023-04-07T11:56:20.509Z,101800.72
2023-04-07T11:58:51.695Z,101798.97
2023-04-07T12:01:19.504Z,101798.06
2023-04-07T12:04:01.850Z,101802.50
2023-04-07T12:06:35.170Z,101813.81
2023-04-07T12:09:03.574Z,101803.31
2023-04-07T12:11:31.891Z,101809.38
2023-04-07T12:13:59.633Z,101810.25
2023-04-07T12:16:27.707Z,101807.63
2023-04-07T12:18:55.347Z,101817.09
2023-04-07T12:21:22.786Z,101816.25
2023-04-07T12:23:50.825Z,101817.13
2023-04-07T12:26:19.358Z,101830.22
2023-04-07T12:28:48.575Z,101828.63
2023-04-07T12:31:15.998Z,101827.63
2023-04-07T12:33:43.449Z,101828.50
2023-04-07T12:36:11.249Z,101839.78
2023-04-07T12:38:38.765Z,101830.19
2023-04-07T12:41:06.254Z,101845.78
2023-04-07T12:43:33.688Z,101850.91
2023-04-07T12:46:01.239Z,101848.28
2023-04-07T12:48:28.756Z,101849.19
2023-04-07T12:50:56.577Z,101856.09
2023-04-07T12:53:24.191Z,101856.22
2023-04-07T12:55:51.800Z,101849.25
2023-04-07T12:58:19.579Z,101851.75
2023-04-07T13:00:48.667Z,101862.22
2023-04-07T13:03:16.252Z,101862.28
2023-04-07T13:05:43.770Z,101866.50
2023-04-07T13:08:11.146Z,101868.19
2023-04-07T13:10:38.521Z,101863.81
2023-04-07T13:13:06.022Z,101860.22
2023-04-07T13:15:33.502Z,101867.94
2023-04-07T13:18:00.944Z,101871.50
2023-04-07T13:20:30.229Z,101877.53
2023-04-07T13:23:07.749Z,101878.19
2023-04-07T13:25:37.605Z,101871.38
2023-04-07T13:28:05.854Z,101868.69
2023-04-07T13:30:33.415Z,101874.00
2023-04-07T13:33:01.005Z,101873.16
2023-04-07T13:35:30.314Z,101871.31
2023-04-07T13:37:57.892Z,101869.72
2023-04-07T13:40:25.324Z,101867.94
2023-04-07T13:42:52.698Z,101857.53
2023-04-07T13:45:20.190Z,101871.53
2023-04-07T13:47:47.644Z,101867.38
2023-04-07T13:50:15.796Z,101883.81
2023-04-07T13:52:43.334Z,101870.03
2023-04-07T13:55:10.927Z,101877.03
2023-04-07T13:57:38.378Z,101878.69
2023-04-07T14:00:07.345Z,101884.72
2023-04-07T14:02:35.654Z,101876.97
2023-04-07T14:05:03.197Z,101886.47
2023-04-07T14:07:30.691Z,101886.50
2023-04-07T14:09:58.431Z,101889.22
2023-04-07T14:12:25.827Z,101883.94
2023-04-07T14:14:54.764Z,101887.44
2023-04-07T14:17:22.169Z,101891.69
2023-04-07T14:19:49.587Z,101890.84
2023-04-07T14:22:17.026Z,101889.19
2023-04-07T14:24:45.234Z,101890.03
2023-04-07T14:27:14.106Z,101883.88
2023-04-07T14:29:41.726Z,101896.00
2023-04-07T14:32:09.284Z,101895.94
2023-04-07T14:34:36.738Z,101896.09
2023-04-07T14:37:04.157Z,101890.91
2023-04-07T14:39:31.709Z,101901.19
2023-04-07T14:41:59.235Z,101890.72
2023-04-07T14:44:28.985Z,101900.34
2023-04-07T14:46:56.512Z,101896.81
2023-04-07T14:49:25.155Z,101895.13
2023-04-07T14:51:53.433Z,101895.06
2023-04-07T14:54:21.673Z,101895.03
2023-04-07T14:56:49.223Z,101900.34
2023-04-07T14:59:16.655Z,101903.69
2023-04-07T15:01:44.180Z,101900.78
2023-04-07T15:04:11.776Z,101902.53
2023-04-07T15:06:41.514Z,101905.91
2023-04-07T15:09:08.918Z,101901.63
2023-04-07T15:11:36.432Z,101906.63
2023-04-07T15:14:04.198Z,101902.53
2023-04-07T15:16:31.653Z,101919.09
2023-04-07T15:18:59.169Z,101924.22
2023-04-07T15:21:27.733Z,101911.94
2023-04-07T15:23:55.076Z,101916.22
2023-04-07T15:26:22.515Z,101923.06
2023-04-07T15:28:49.946Z,101917.66
2023-04-07T15:31:17.529Z,101917.66
2023-04-07T15:33:46.282Z,101922.72
2023-04-07T15:36:13.761Z,101924.63
2023-04-07T15:38:41.286Z,101931.50
2023-04-07T15:41:08.809Z,101931.47
2023-04-07T15:43:36.825Z,101941.94
2023-04-07T15:46:04.288Z,101933.25
2023-04-07T15:48:31.728Z,101939.28
2023-04-07T15:50:59.152Z,101941.03
2023-04-07T15:53:26.635Z,101939.16
2023-04-07T15:55:55.947Z,101934.91
2023-04-07T15:58:23.317Z,101940.94
2023-04-07T16:00:50.847Z,101943.75
2023-04-07T16:03:18.413Z,101943.53
2023-04-07T16:05:45.951Z,101940.97
2023-04-07T16:08:13.987Z,101943.72
2023-04-07T16:10:41.509Z,101948.88
2023-04-07T16:13:08.953Z,101951.69
2023-04-07T16:15:40.488Z,101955.97
2023-04-07T16:18:10.005Z,101960.31
2023-04-07T16:20:37.478Z,101948.81
2023-04-07T16:23:05.148Z,101954.13
2023-04-07T16:25:32.608Z,101954.28
2023-04-07T16:28:00.075Z,101957.84
2023-04-07T16:30:27.533Z,101961.09
2023-04-07T16:32:54.990Z,101966.28
2023-04-07T16:35:22.519Z,101973.25
2023-04-07T16:37:50.456Z,101962.69
2023-04-07T16:40:17.844Z,101971.97
2023-04-07T16:42:45.207Z,101973.09
2023-04-07T16:45:12.668Z,101979.97
2023-04-07T16:47:44.199Z,101973.22
2023-04-07T16:50:11.876Z,101976.59
2023-04-07T16:52:40.337Z,101975.03
2023-04-07T16:55:08.014Z,101979.34
2023-04-07T16:57:35.493Z,101988.91
2023-04-07T17:00:04.126Z,101984.50
2023-04-07T17:02:31.755Z,101986.94
2023-04-07T17:04:59.256Z,101992.13
2023-04-07T17:07:27.245Z,101985.28
2023-04-07T17:09:54.817Z,102000.97
2023-04-07T17:12:22.726Z,102000.91
2023-04-07T17:14:50.157Z,102002.69
2023-04-07T17:17:17.591Z,102001.16
2023-04-07T17:19:45.015Z,102004.63
2023-04-07T17:22:12.434Z,102005.47
2023-04-07T17:24:39.784Z,102012.44
2023-04-07T17:27:07.220Z,101986.06
2023-04-07T17:29:34.622Z,102011.53
2023-04-07T17:32:02.625Z,102018.38
2023-04-07T17:34:30.078Z,102018.53
2023-04-07T17:36:57.566Z,102018.59
2023-04-07T17:39:24.950Z,102029.75
2023-04-07T17:41:52.383Z,102030.63
2023-04-07T17:44:19.792Z,102020.00
2023-04-07T17:46:47.318Z,102031.19
2023-04-07T17:49:14.989Z,102035.41
2023-04-07T17:51:42.549Z,102037.34
2023-04-07T17:54:09.934Z,102039.16
2023-04-07T17:56:37.991Z,102040.75
2023-04-07T17:59:05.713Z,102044.13
2023-04-07T18:01:33.161Z,102043.09
2023-04-07T18:04:00.814Z,102047.41
2023-04-07T18:06:28.823Z,102050.88
2023-04-07T18:08:56.608Z,102058.63
2023-04-07T18:11:24.008Z,102055.06
2023-04-07T18:13:51.656Z,102068.06
2023-04-07T18:16:22.048Z,102061.22
2023-04-07T18:18:50.086Z,102069.16
2023-04-07T18:21:17.488Z,102068.16
2023-04-07T18:23:44.894Z,102075.22
2023-04-07T18:26:12.336Z,102072.59
2023-04-07T18:28:39.768Z,102083.75
2023-04-07T18:31:08.558Z,102076.94
2023-04-07T18:33:36.653Z,102077.94
2023-04-07T18:36:04.915Z,102078.69
2023-04-07T18:38:32.362Z,102081.38
2023-04-07T18:41:00.185Z,102096.03
2023-04-07T18:43:28.003Z,102092.69
2023-04-07T18:45:55.444Z,102102.19
2023-04-07T18:48:22.832Z,102099.56
2023-04-07T18:50:53.723Z,102105.75
2023-04-07T18:53:21.740Z,102109.22
2023-04-07T18:55:49.491Z,102116.28
2023-04-07T18:58:16.886Z,102125.75
2023-04-07T19:00:44.959Z,102127.47
2023-04-07T19:03:12.462Z,102122.34
2023-04-07T19:05:41.832Z,102129.34
2023-04-07T19:08:09.771Z,102134.44
2023-04-07T19:10:37.181Z,102138.53
2023-04-07T19:13:04.999Z,102136.56
2023-04-07T19:15:34.262Z,102139.00
2023-04-07T19:18:04.974Z,102144.38
2023-04-07T19:20:33.757Z,102144.44
2023-04-07T19:23:01.623Z,102153.94
2023-04-07T19:25:29.806Z,102143.44
2023-04-07T19:27:57.721Z,102153.00
2023-04-07T19:30:25.598Z,102158.47
2023-04-07T19:32:53.319Z,102151.56
2023-04-07T19:35:21.084Z,102152.31
2023-04-07T19:37:48.581Z,102158.31
2023-04-07T19:40:16.120Z,102158.00
2023-04-07T19:42:43.496Z,102158.91
2023-04-07T19:45:11.424Z,102157.22
2023-04-07T19:47:39.028Z,102161.59
2023-04-07T19:50:06.824Z,102167.84
2023-04-07T19:52:34.213Z,102161.72
2023-04-07T19:55:04.251Z,102154.59
2023-04-07T19:57:32.309Z,102155.41
2023-04-07T19:59:59.731Z,102155.41
2023-04-07T20:02:27.989Z,102152.78
2023-04-07T20:04:55.538Z,102161.47
2023-04-07T20:07:23.006Z,102166.66
2023-04-07T20:09:51.434Z,102172.56
2023-04-07T20:12:18.955Z,102169.97
2023-04-07T20:14:46.356Z,102168.25
2023-04-07T20:17:13.711Z,102170.00
2023-04-07T20:19:41.658Z,102170.13
2023-04-07T20:22:09.540Z,102173.66
2023-04-07T20:24:36.962Z,102175.63
2023-04-07T20:27:04.473Z,102175.66
2023-04-07T20:29:31.936Z,102186.06
2023-04-07T20:31:59.341Z,102192.09
2023-04-07T20:34:26.818Z,102192.09
2023-04-07T20:36:54.490Z,102194.78
2023-04-07T20:39:22.063Z,102193.06
2023-04-07T20:41:49.515Z,102199.66
2023-04-07T20:44:17.035Z,102198.19
2023-04-07T20:46:44.932Z,102193.06
2023-04-07T20:49:12.461Z,102195.47
2023-04-07T20:51:40.042Z,102201.75
2023-04-07T20:54:07.811Z,102197.38
2023-04-07T20:56:35.598Z,102197.38
2023-04-07T20:59:03.030Z,102203.34
2023-04-07T21:01:30.545Z,102210.13
2023-04-07T21:03:59.716Z,102200.59
2023-04-07T21:06:27.145Z,102204.00
2023-04-07T21:08:54.537Z,102212.56
2023-04-07T21:11:21.976Z,102207.59
2023-04-07T21:13:49.440Z,102208.53
2023-04-07T21:16:17.050Z,102212.06
2023-04-07T21:18:44.524Z,102205.81
2023-04-07T21:21:12.036Z,102223.97
2023-04-07T21:23:40.817Z,102213.59
2023-04-07T21:26:08.315Z,102217.00
2023-04-07T21:28:35.925Z,102206.59
2023-04-07T21:31:04.433Z,102209.13
2023-04-07T21:33:31.959Z,102217.25
2023-04-07T21:36:00.701Z,102208.69
2023-04-07T21:38:28.236Z,102213.88
2023-04-07T21:40:56.436Z,102201.44
2023-04-07T21:43:24.131Z,102218.88
2023-04-07T21:45:52.297Z,102215.47
2023-04-07T21:48:20.888Z,102215.47
2023-04-07T21:50:48.294Z,102216.34
2023-04-07T21:53:15.666Z,102222.41
2023-04-07T21:55:43.031Z,102216.34
2023-04-07T21:58:11.069Z,102220.38
2023-04-07T22:00:39.197Z,102229.84
2023-04-07T22:03:07.706Z,102228.22
2023-04-07T22:05:35.470Z,102229.06
2023-04-07T22:08:03.167Z,102225.59
2023-04-07T22:10:30.668Z,102227.31
2023-04-07T22:12:58.193Z,102235.22
2023-04-07T22:15:25.643Z,102239.63
2023-04-07T22:17:53.188Z,102244.94
2023-04-07T22:20:20.669Z,102244.94
2023-04-07T22:22:48.126Z,102237.94
2023-04-07T22:25:15.521Z,102239.59
2023-04-07T22:27:42.977Z,102244.81
2023-04-07T22:30:10.934Z,102250.88
2023-04-07T22:32:38.440Z,102256.94
2023-04-07T22:35:06.115Z,102255.13
2023-04-07T22:37:33.587Z,102256.94
2023-04-07T22:40:01.094Z,102250.97
2023-04-07T22:42:28.537Z,102258.88
2023-04-07T22:44:55.946Z,102253.00
2023-04-07T22:47:23.432Z,102260.91
2023-04-07T22:49:50.901Z,102258.97
2023-04-07T22:52:18.376Z,102263.19
2023-04-07T22:54:45.930Z,102263.81
2023-04-07T22:57:13.324Z,102267.22
2023-04-07T22:59:41.042Z,102263.66
2023-04-07T23:02:08.514Z,102267.09
2023-04-07T23:04:35.944Z,102264.78
2023-04-07T23:07:03.329Z,102271.63
2023-04-07T23:09:30.694Z,102261.97
2023-04-07T23:11:58.070Z,102270.72
2023-04-07T23:14:25.482Z,102269.78
2023-04-07T23:16:54.426Z,102273.97
2023-04-07T23:19:22.009Z,102280.66
2023-04-07T23:21:49.409Z,102279.69
2023-04-07T23:24:16.805Z,102278.38
2023-04-07T23:26:44.280Z,102284.31
2023-04-07T23:29:11.972Z,102286.22
2023-04-07T23:31:39.448Z,102283.53
2023-04-07T23:34:07.093Z,102291.69
2023-04-07T23:36:34.564Z,102289.06
2023-04-07T23:39:02.353Z,102293.44
2023-04-07T23:41:29.732Z,102291.22
2023-04-07T23:43:57.236Z,102285.13
2023-04-07T23:46:24.759Z,102294.56
2023-04-07T23:48:52.397Z,102294.44
2023-04-07T23:51:19.980Z,102303.06
2023-04-07T23:53:47.356Z,102303.81
2023-04-07T23:56:14.777Z,102303.78
2023-04-07T23:58:42.153Z,102298.91
